Time;durP1;ratioP1;P1;durP2;ratioP2;P2;SDS_P1;SDS_P2;PMS_P1;PMS_P2;Temp;Humidity;BMP_temperature;BMP_pressure;BME280_temperature;BME280_humidity;BME280_pressure;Samples;Min_cycle;Max_cycle;Signal;HPM_P1;HPM_P2
2023/05/25 00:02:08;;;;;;;11.25;5.90;;;12.20;99.90;;;;;;4925285;29;20043;-80
2023/05/25 00:04:33;;;;;;;14.60;6.03;;;12.30;99.90;;;;;;4908519;28;20039;-81
2023/05/25 00:07:00;;;;;;;12.23;5.80;;;12.30;99.90;;;;;;4909781;29;20052;-80
2023/05/25 00:09:25;;;;;;;10.82;6.30;;;12.40;99.90;;;;;;4892711;28;20051;-80
2023/05/25 00:11:51;;;;;;;13.48;6.28;;;12.40;99.90;;;;;;4906043;29;20036;-76
2023/05/25 00:14:18;;;;;;;14.98;6.43;;;12.50;99.90;;;;;;4892157;29;20040;-80
2023/05/25 00:16:47;;;;;;;11.77;6.40;;;12.40;99.90;;;;;;4880357;28;20035;-81
2023/05/25 00:19:13;;;;;;;13.55;6.95;;;12.50;99.90;;;;;;4906043;28;20054;-80
2023/05/25 00:21:40;;;;;;;13.23;6.03;;;12.30;99.90;;;;;;4894770;28;20421;-80
2023/05/25 00:24:06;;;;;;;11.60;5.45;;;12.30;99.90;;;;;;4928346;28;20119;-80
2023/05/25 00:26:34;;;;;;;11.10;6.38;;;12.30;99.90;;;;;;4928132;29;20105;-80
2023/05/25 00:29:00;;;;;;;13.85;7.00;;;12.30;99.90;;;;;;4929975;28;20044;-79
2023/05/25 00:31:26;;;;;;;13.80;7.18;;;12.30;99.90;;;;;;4910532;29;20127;-80
2023/05/25 00:33:52;;;;;;;16.75;6.35;;;12.20;99.90;;;;;;4891516;29;20044;-80
2023/05/25 00:36:18;;;;;;;12.50;6.38;;;12.30;99.90;;;;;;4911104;29;20043;-79
2023/05/25 00:38:44;;;;;;;16.25;6.85;;;12.30;99.90;;;;;;4881038;28;20491;-80
2023/05/25 00:41:10;;;;;;;16.45;6.50;;;12.40;99.90;;;;;;4913881;29;20059;-80
2023/05/25 00:43:36;;;;;;;11.68;5.68;;;12.30;99.90;;;;;;4903387;29;20044;-81
2023/05/25 00:46:02;;;;;;;17.75;6.82;;;12.20;99.90;;;;;;4894155;28;20097;-80
2023/05/25 00:48:28;;;;;;;13.30;6.43;;;12.10;99.90;;;;;;4911894;29;20101;-80
2023/05/25 00:50:56;;;;;;;13.73;6.43;;;12.10;99.90;;;;;;4927264;28;20093;-80
2023/05/25 00:53:23;;;;;;;11.57;5.63;;;12.20;99.90;;;;;;4902490;29;20048;-81
2023/05/25 00:56:09;;;;;;;16.70;6.32;;;12.30;99.90;;;;;;4898074;29;20048;-81
2023/05/25 00:58:38;;;;;;;11.20;6.07;;;12.20;99.90;;;;;;4939850;29;20047;-81
2023/05/25 01:01:10;;;;;;;15.18;7.53;;;12.20;99.90;;;;;;4911655;28;20047;-81
2023/05/25 01:03:38;;;;;;;13.75;6.65;;;12.10;99.90;;;;;;4929533;28;20131;-81
2023/05/25 01:06:15;;;;;;;14.35;6.97;;;12.20;99.90;;;;;;4912960;29;20059;-81
2023/05/25 01:08:46;;;;;;;13.98;6.53;;;12.60;99.90;;;;;;4915033;29;20039;-82
2023/05/25 01:11:15;;;;;;;13.88;6.13;;;12.00;99.90;;;;;;4926488;29;20442;-83
2023/05/25 01:13:43;;;;;;;15.27;6.28;;;12.10;99.90;;;;;;4914132;29;20051;-81
2023/05/25 01:16:08;;;;;;;12.93;6.13;;;12.20;99.90;;;;;;4912944;29;20372;-81
2023/05/25 01:18:36;;;;;;;13.88;6.85;;;12.10;99.90;;;;;;4913271;28;20062;-79
2023/05/25 01:21:16;;;;;;;15.02;7.00;;;12.10;99.90;;;;;;4913167;29;20040;-80
2023/05/25 01:23:59;;;;;;;12.52;6.47;;;12.10;99.90;;;;;;4928379;29;20052;-80
2023/05/25 01:26:27;;;;;;;10.80;6.30;;;12.20;99.90;;;;;;4913727;28;20144;-80
2023/05/25 01:28:55;;;;;;;9.13;6.07;;;12.10;99.90;;;;;;4927084;29;20052;-80
2023/05/25 01:31:22;;;;;;;12.32;6.85;;;12.20;99.90;;;;;;4896019;29;20054;-80
2023/05/25 01:33:52;;;;;;;13.70;6.72;;;12.30;99.90;;;;;;4907529;28;20131;-80
2023/05/25 01:36:19;;;;;;;12.60;6.97;;;12.20;99.90;;;;;;4909713;28;20098;-80
2023/05/25 01:38:44;;;;;;;16.40;7.28;;;12.20;99.90;;;;;;4909998;29;20847;-80
2023/05/25 01:41:10;;;;;;;14.60;6.65;;;12.30;99.90;;;;;;4907600;28;20043;-80
2023/05/25 01:43:36;;;;;;;15.32;6.78;;;12.30;99.90;;;;;;4911807;29;20411;-80
2023/05/25 01:46:16;;;;;;;11.45;6.50;;;12.10;99.90;;;;;;4892564;28;20051;-80
2023/05/25 01:49:01;;;;;;;12.88;6.82;;;12.20;99.90;;;;;;4926322;29;20388;-81
2023/05/25 01:51:42;;;;;;;16.17;6.75;;;12.10;99.90;;;;;;4909560;29;20043;-80
2023/05/25 01:54:20;;;;;;;16.13;6.78;;;12.10;99.90;;;;;;4911299;28;20062;-80
2023/05/25 01:56:48;;;;;;;17.15;7.43;;;12.20;99.90;;;;;;4910506;29;20525;-80
2023/05/25 01:59:18;;;;;;;16.63;6.72;;;12.10;99.90;;;;;;4912026;29;20047;-80
2023/05/25 02:01:45;;;;;;;17.15;6.72;;;12.20;99.90;;;;;;4912055;29;20762;-80
2023/05/25 02:04:11;;;;;;;15.32;7.05;;;12.10;99.90;;;;;;4914065;29;20043;-80
2023/05/25 02:06:37;;;;;;;16.77;7.78;;;12.10;99.90;;;;;;4927956;28;20051;-80
2023/05/25 02:09:03;;;;;;;17.88;7.75;;;12.10;99.90;;;;;;4924616;28;20048;-81
2023/05/25 02:11:29;;;;;;;15.40;7.70;;;12.20;99.90;;;;;;4928688;29;20062;-81
2023/05/25 02:13:54;;;;;;;19.40;8.40;;;12.10;99.90;;;;;;4913987;29;20044;-81
2023/05/25 02:16:20;;;;;;;18.58;7.88;;;12.20;99.90;;;;;;4890907;29;20050;-81
2023/05/25 02:18:46;;;;;;;15.45;7.68;;;12.10;99.90;;;;;;4882056;29;20043;-80
2023/05/25 02:21:12;;;;;;;18.85;7.22;;;12.00;99.90;;;;;;4909567;29;20032;-80
2023/05/25 02:23:37;;;;;;;16.10;7.90;;;12.00;99.90;;;;;;4879888;29;20039;-80
2023/05/25 02:26:03;;;;;;;15.05;7.93;;;11.90;99.90;;;;;;4907119;29;20044;-80
2023/05/25 02:28:29;;;;;;;17.17;7.93;;;12.00;99.90;;;;;;4912884;28;20052;-80
2023/05/25 02:30:55;;;;;;;17.27;8.25;;;12.00;99.90;;;;;;4908747;28;20042;-80
2023/05/25 02:33:21;;;;;;;15.20;7.28;;;11.90;99.90;;;;;;4879770;29;20052;-80
2023/05/25 02:35:46;;;;;;;15.45;7.28;;;12.00;99.90;;;;;;4912364;28;20050;-82
2023/05/25 02:38:12;;;;;;;17.60;8.27;;;12.00;99.90;;;;;;4908796;28;20131;-81
2023/05/25 02:40:38;;;;;;;12.38;7.35;;;12.00;99.90;;;;;;4911784;29;20036;-80
2023/05/25 02:43:04;;;;;;;13.85;7.25;;;12.00;99.90;;;;;;4892993;29;20059;-81
2023/05/25 02:45:30;;;;;;;16.23;8.10;;;11.90;99.90;;;;;;4910164;28;20044;-80
2023/05/25 02:47:56;;;;;;;17.35;7.82;;;12.00;99.90;;;;;;4906872;29;20051;-81
2023/05/25 02:50:21;;;;;;;16.10;7.60;;;12.00;99.90;;;;;;4907405;29;20658;-80
2023/05/25 02:52:47;;;;;;;12.70;6.85;;;11.90;99.90;;;;;;4896449;29;20408;-81
2023/05/25 02:55:13;;;;;;;16.80;7.47;;;12.00;99.90;;;;;;4893136;29;20396;-81
2023/05/25 02:57:39;;;;;;;13.20;7.93;;;12.00;99.90;;;;;;4885894;29;20040;-82
2023/05/25 03:00:06;;;;;;;14.52;7.82;;;11.80;99.90;;;;;;4909327;28;20043;-81
2023/05/25 03:02:33;;;;;;;13.77;7.35;;;11.80;99.90;;;;;;4913709;29;20040;-81
2023/05/25 03:05:00;;;;;;;17.85;7.82;;;11.90;99.90;;;;;;4911247;29;20039;-80
2023/05/25 03:07:27;;;;;;;15.18;7.38;;;11.90;99.90;;;;;;4894847;28;20075;-81
2023/05/25 03:09:54;;;;;;;25.35;8.05;;;11.80;99.90;;;;;;4863558;29;20051;-80
2023/05/25 03:12:19;;;;;;;17.95;7.85;;;11.80;99.90;;;;;;4902740;29;20075;-81
2023/05/25 03:14:47;;;;;;;14.95;7.50;;;11.80;99.90;;;;;;4913495;28;20129;-81
2023/05/25 03:17:12;;;;;;;14.30;7.75;;;11.90;99.90;;;;;;4908937;28;20032;-80
2023/05/25 03:19:38;;;;;;;12.35;7.40;;;11.80;99.90;;;;;;4928398;29;20050;-80
2023/05/25 03:22:04;;;;;;;15.68;8.35;;;11.80;99.90;;;;;;4913132;29;20043;-79
2023/05/25 03:24:30;;;;;;;15.50;7.57;;;12.00;99.90;;;;;;4951050;28;20125;-82
2023/05/25 03:26:55;;;;;;;16.55;7.20;;;11.70;99.90;;;;;;4989207;28;20036;-81
2023/05/25 03:29:21;;;;;;;18.58;7.28;;;11.90;99.90;;;;;;4912499;29;20046;-82
2023/05/25 03:31:47;;;;;;;18.95;8.02;;;11.90;99.90;;;;;;4882621;29;20485;-82
2023/05/25 03:34:12;;;;;;;16.42;7.32;;;11.80;99.90;;;;;;4909931;28;20130;-82
2023/05/25 03:36:38;;;;;;;15.77;7.75;;;11.90;99.90;;;;;;4878945;28;20040;-81
2023/05/25 03:39:05;;;;;;;12.02;6.68;;;11.90;99.90;;;;;;4869010;29;20484;-81
2023/05/25 03:41:31;;;;;;;14.32;6.95;;;12.00;99.90;;;;;;4903250;28;20109;-81
2023/05/25 03:43:57;;;;;;;13.70;6.28;;;11.90;99.90;;;;;;4875775;28;20044;-81
2023/05/25 03:46:22;;;;;;;15.07;6.30;;;11.90;99.90;;;;;;4894750;29;20059;-80
2023/05/25 03:48:48;;;;;;;12.48;7.03;;;11.80;99.90;;;;;;4897186;29;20070;-81
2023/05/25 03:51:15;;;;;;;12.23;6.60;;;11.80;99.90;;;;;;4911805;28;20105;-81
2023/05/25 03:53:40;;;;;;;11.77;6.28;;;11.80;99.90;;;;;;4927095;29;20149;-82
2023/05/25 03:56:06;;;;;;;11.07;6.78;;;11.70;99.90;;;;;;4879740;29;20075;-82
2023/05/25 03:58:32;;;;;;;18.30;7.57;;;11.80;99.90;;;;;;4910822;28;20490;-82
2023/05/25 04:00:57;;;;;;;12.60;6.65;;;11.90;99.90;;;;;;4893678;29;20087;-81
2023/05/25 04:03:23;;;;;;;12.25;6.45;;;11.90;99.90;;;;;;4912703;29;20491;-82
2023/05/25 04:05:49;;;;;;;13.77;7.78;;;11.80;99.90;;;;;;4895668;29;20043;-81
2023/05/25 04:08:19;;;;;;;16.98;7.35;;;12.00;99.90;;;;;;4900416;29;20155;-81
2023/05/25 04:10:45;;;;;;;11.00;7.13;;;11.80;99.90;;;;;;4918733;29;20040;-82
2023/05/25 04:13:11;;;;;;;14.38;6.80;;;12.00;99.90;;;;;;4904838;29;20040;-82
2023/05/25 04:15:37;;;;;;;12.60;7.05;;;11.80;99.90;;;;;;4905095;29;20512;-82
2023/05/25 04:18:03;;;;;;;9.75;6.65;;;12.00;99.90;;;;;;4889378;29;20075;-81
2023/05/25 04:20:29;;;;;;;18.17;7.55;;;11.90;99.90;;;;;;4901612;29;20035;-82
2023/05/25 04:22:56;;;;;;;16.42;7.28;;;12.10;99.90;;;;;;4923914;29;20054;-82
2023/05/25 04:25:22;;;;;;;12.27;7.10;;;12.20;99.90;;;;;;4916096;28;20040;-82
2023/05/25 04:27:48;;;;;;;13.40;6.93;;;12.00;99.90;;;;;;4913899;28;20680;-81
2023/05/25 04:30:14;;;;;;;14.45;7.13;;;12.10;99.90;;;;;;4910375;29;20040;-82
2023/05/25 04:32:40;;;;;;;11.45;7.13;;;12.20;99.90;;;;;;4895308;29;20079;-83
2023/05/25 04:35:06;;;;;;;16.73;6.88;;;12.50;99.90;;;;;;4892361;29;20071;-84
2023/05/25 04:37:32;;;;;;;14.48;6.82;;;12.30;99.90;;;;;;4893007;29;20044;-84
2023/05/25 04:39:58;;;;;;;14.27;7.43;;;12.50;99.90;;;;;;4892421;29;20051;-83
2023/05/25 04:42:25;;;;;;;13.35;6.60;;;12.40;99.90;;;;;;4908160;29;20067;-87
2023/05/25 04:44:54;;;;;;;12.68;7.00;;;12.70;99.90;;;;;;4889468;29;20048;-81
2023/05/25 04:47:21;;;;;;;16.77;7.38;;;12.70;99.90;;;;;;4912017;29;20043;-83
2023/05/25 04:49:47;;;;;;;16.30;7.85;;;12.60;99.90;;;;;;4884891;29;20055;-83
2023/05/25 04:52:12;;;;;;;18.42;7.57;;;12.90;99.90;;;;;;4916191;29;20048;-84
2023/05/25 04:54:38;;;;;;;15.85;7.13;;;13.10;99.90;;;;;;4912562;29;20105;-83
2023/05/25 04:57:05;;;;;;;16.48;7.00;;;12.90;99.90;;;;;;4878391;29;20044;-83
2023/05/25 04:59:30;;;;;;;15.32;7.95;;;13.20;99.90;;;;;;4878467;29;20083;-83
2023/05/25 05:01:56;;;;;;;13.80;7.70;;;13.40;99.90;;;;;;4884479;29;20044;-82
2023/05/25 05:04:22;;;;;;;12.77;6.90;;;13.30;99.90;;;;;;4902387;28;20123;-82
2023/05/25 05:06:48;;;;;;;15.85;6.93;;;13.70;99.90;;;;;;4896043;29;20143;-83
2023/05/25 05:09:14;;;;;;;15.90;7.78;;;13.90;99.90;;;;;;4897473;28;20048;-83
2023/05/25 05:11:39;;;;;;;11.88;6.65;;;13.80;99.90;;;;;;4881415;29;20086;-85
2023/05/25 05:14:05;;;;;;;17.90;7.43;;;13.80;99.90;;;;;;4886997;29;20105;-83
2023/05/25 05:16:33;;;;;;;17.02;6.78;;;14.00;99.90;;;;;;4883253;29;20139;-82
2023/05/25 05:19:00;;;;;;;16.20;6.75;;;14.30;99.90;;;;;;4911798;29;20070;-83
2023/05/25 05:21:26;;;;;;;15.93;7.25;;;14.00;99.90;;;;;;4897252;29;20044;-82
2023/05/25 05:23:52;;;;;;;16.42;7.97;;;14.30;99.90;;;;;;4898239;28;20047;-82
2023/05/25 05:26:20;;;;;;;13.07;6.75;;;14.50;99.90;;;;;;4883119;29;20448;-85
2023/05/25 05:28:45;;;;;;;14.65;7.20;;;14.40;99.90;;;;;;4883749;29;20051;-81
2023/05/25 05:31:11;;;;;;;14.50;7.07;;;14.80;99.90;;;;;;4896019;29;20044;-82
2023/05/25 05:33:38;;;;;;;16.45;7.00;;;14.80;99.90;;;;;;4904447;29;20118;-81
2023/05/25 05:36:04;;;;;;;13.93;6.28;;;14.70;99.90;;;;;;4897992;29;20044;-83
2023/05/25 05:38:31;;;;;;;16.40;6.45;;;15.30;99.90;;;;;;4896282;29;20036;-83
2023/05/25 05:40:57;;;;;;;13.57;5.97;;;15.10;99.90;;;;;;4899671;29;20055;-82
2023/05/25 05:43:22;;;;;;;13.88;6.20;;;15.00;99.90;;;;;;4896711;29;20439;-81
2023/05/25 05:45:48;;;;;;;10.68;5.90;;;15.60;99.90;;;;;;4893124;29;20052;-81
2023/05/25 05:48:14;;;;;;;11.43;5.03;;;15.60;99.90;;;;;;4903501;29;20067;-84
2023/05/25 05:50:40;;;;;;;12.77;5.10;;;15.80;99.90;;;;;;4913737;28;20104;-79
2023/05/25 05:53:06;;;;;;;13.82;5.13;;;15.80;99.90;;;;;;4885052;28;20051;-79
2023/05/25 05:55:32;;;;;;;10.43;4.90;;;15.90;99.90;;;;;;4913836;29;20454;-81
2023/05/25 05:57:58;;;;;;;9.98;4.53;;;16.00;99.90;;;;;;4887288;29;20106;-80
2023/05/25 06:00:24;;;;;;;11.00;4.13;;;16.10;99.90;;;;;;4900564;29;20284;-81
2023/05/25 06:02:50;;;;;;;11.15;3.90;;;16.30;99.90;;;;;;4901499;29;20071;-81
2023/05/25 06:05:16;;;;;;;10.18;3.38;;;16.20;99.90;;;;;;4897187;29;20439;-80
2023/05/25 06:07:42;;;;;;;17.70;4.28;;;16.10;99.90;;;;;;4978011;28;20048;-81
2023/05/25 06:10:08;;;;;;;17.45;4.30;;;16.20;99.90;;;;;;4904830;29;20500;-79
2023/05/25 06:12:33;;;;;;;16.40;4.25;;;16.10;99.90;;;;;;4864795;29;20044;-80
2023/05/25 06:14:59;;;;;;;13.43;3.83;;;16.20;99.90;;;;;;4895033;29;20409;-80
2023/05/25 06:17:26;;;;;;;13.23;3.83;;;16.20;99.90;;;;;;4882065;29;20098;-80
2023/05/25 06:19:52;;;;;;;13.90;3.50;;;16.40;99.90;;;;;;4902171;29;20040;-80
2023/05/25 06:22:17;;;;;;;14.32;4.32;;;16.10;99.90;;;;;;4930915;29;20123;-82
2023/05/25 06:24:43;;;;;;;14.40;3.80;;;16.30;99.90;;;;;;4928417;29;20034;-78
2023/05/25 06:27:09;;;;;;;14.85;4.38;;;16.20;99.90;;;;;;4919127;28;20094;-81
2023/05/25 06:29:34;;;;;;;13.57;3.63;;;16.30;99.90;;;;;;4917073;29;20047;-79
2023/05/25 06:32:00;;;;;;;14.88;4.63;;;16.70;99.90;;;;;;4915994;29;20502;-80
2023/05/25 06:34:26;;;;;;;12.70;3.88;;;16.50;99.90;;;;;;4899231;29;20476;-81
2023/05/25 06:36:52;;;;;;;13.07;4.20;;;16.30;99.90;;;;;;4899969;29;20048;-81
2023/05/25 06:39:17;;;;;;;12.30;3.40;;;16.70;99.90;;;;;;4900490;29;20040;-81
2023/05/25 06:41:43;;;;;;;12.43;4.15;;;16.70;99.90;;;;;;4914876;29;20071;-81
2023/05/25 06:44:09;;;;;;;18.27;4.57;;;16.80;99.90;;;;;;4918571;29;20420;-81
2023/05/25 06:46:35;;;;;;;14.38;3.55;;;17.10;99.90;;;;;;4897236;29;20126;-80
2023/05/25 06:49:01;;;;;;;15.45;4.28;;;17.10;99.90;;;;;;4901631;29;20103;-84
2023/05/25 06:51:30;;;;;;;10.48;3.60;;;17.30;99.90;;;;;;4918710;29;20050;-81
2023/05/25 06:53:56;;;;;;;14.07;4.30;;;17.40;99.90;;;;;;4901775;29;20136;-82
2023/05/25 06:56:22;;;;;;;15.35;4.60;;;16.90;99.90;;;;;;4912539;29;20107;-81
2023/05/25 06:58:48;;;;;;;14.77;4.05;;;17.30;99.90;;;;;;4925678;29;20048;-78
2023/05/25 07:01:15;;;;;;;22.55;5.60;;;17.20;99.90;;;;;;4925141;29;20048;-79
2023/05/25 07:03:41;;;;;;;17.38;4.35;;;17.40;99.90;;;;;;4910861;29;20040;-79
2023/05/25 07:06:07;;;;;;;11.20;3.83;;;17.60;99.90;;;;;;4895270;29;20555;-80
2023/05/25 07:08:33;;;;;;;15.18;4.90;;;17.70;99.90;;;;;;4911895;29;20358;-80
2023/05/25 07:10:59;;;;;;;11.57;3.90;;;17.40;99.90;;;;;;4895401;29;20102;-80
2023/05/25 07:13:25;;;;;;;16.52;4.72;;;17.90;99.90;;;;;;4864677;29;20040;-82
2023/05/25 07:15:51;;;;;;;14.63;3.75;;;18.20;99.90;;;;;;4879311;29;20040;-80
2023/05/25 07:18:17;;;;;;;16.45;4.30;;;18.10;99.90;;;;;;4908439;29;20043;-80
2023/05/25 07:20:43;;;;;;;16.40;3.70;;;17.40;99.90;;;;;;4912764;29;20496;-79
2023/05/25 07:23:10;;;;;;;15.43;3.83;;;17.40;99.90;;;;;;4882252;29;20064;-79
2023/05/25 07:25:37;;;;;;;18.05;4.50;;;17.70;99.90;;;;;;4893884;29;20139;-77
2023/05/25 07:28:03;;;;;;;15.40;4.05;;;17.90;99.90;;;;;;4909603;29;20051;-79
2023/05/25 07:30:29;;;;;;;16.58;4.20;;;18.20;99.90;;;;;;4893699;29;20044;-79
2023/05/25 07:32:56;;;;;;;11.85;4.03;;;18.30;99.90;;;;;;4900231;29;20048;-79
2023/05/25 07:35:23;;;;;;;16.00;3.88;;;18.00;99.90;;;;;;4863354;29;20044;-81
2023/05/25 07:38:18;;;;;;;15.27;4.00;;;18.10;99.90;;;;;;4894107;29;20098;-81
2023/05/25 07:40:46;;;;;;;14.32;3.80;;;17.90;99.90;;;;;;4960167;28;20044;-80
2023/05/25 07:43:12;;;;;;;14.57;4.38;;;18.10;99.90;;;;;;4888094;29;20079;-78
2023/05/25 07:45:38;;;;;;;20.83;4.18;;;18.20;99.90;;;;;;4897169;29;20059;-78
2023/05/25 07:48:06;;;;;;;18.70;4.68;;;17.90;99.90;;;;;;4912815;29;20051;-78
2023/05/25 07:50:32;;;;;;;14.43;3.72;;;18.00;99.90;;;;;;4910886;28;20043;-79
2023/05/25 07:53:01;;;;;;;13.55;4.07;;;17.90;99.90;;;;;;4912084;29;20450;-78
2023/05/25 07:55:26;;;;;;;15.25;3.53;;;18.30;99.90;;;;;;4916351;28;20131;-78
2023/05/25 07:57:52;;;;;;;18.50;4.50;;;18.20;99.90;;;;;;4924783;29;20139;-79
2023/05/25 08:00:21;;;;;;;17.63;4.38;;;18.10;99.90;;;;;;4894718;29;20060;-81
2023/05/25 08:02:48;;;;;;;18.40;4.25;;;17.90;99.90;;;;;;4878948;28;20143;-79
2023/05/25 08:05:14;;;;;;;12.55;3.85;;;17.60;99.90;;;;;;4909196;29;20044;-81
2023/05/25 08:07:40;;;;;;;16.85;4.40;;;17.20;99.90;;;;;;4862866;29;20101;-79
2023/05/25 08:10:06;;;;;;;15.88;3.42;;;17.10;99.90;;;;;;4895658;29;20046;-83
2023/05/25 08:12:32;;;;;;;14.75;4.55;;;17.40;99.90;;;;;;4911908;28;20040;-79
2023/05/25 08:14:57;;;;;;;12.68;3.83;;;17.60;99.90;;;;;;4896201;29;20052;-82
2023/05/25 08:17:23;;;;;;;16.98;4.13;;;17.60;99.90;;;;;;4927906;29;20055;-79
2023/05/25 08:19:49;;;;;;;18.77;4.57;;;17.30;99.90;;;;;;4978300;28;20040;-79
2023/05/25 08:22:15;;;;;;;13.57;3.22;;;17.30;99.90;;;;;;4910002;29;20036;-79
2023/05/25 08:24:41;;;;;;;13.02;3.45;;;17.30;99.90;;;;;;4881527;29;20086;-80
2023/05/25 08:27:06;;;;;;;14.38;4.43;;;17.50;99.90;;;;;;4913338;29;20130;-80
2023/05/25 08:29:32;;;;;;;14.88;3.67;;;17.50;99.90;;;;;;4912267;29;20399;-80
2023/05/25 08:31:58;;;;;;;11.60;3.72;;;17.30;99.90;;;;;;4910547;29;20143;-83
2023/05/25 08:34:23;;;;;;;15.05;4.20;;;17.70;99.90;;;;;;4893206;29;20039;-79
2023/05/25 08:36:49;;;;;;;20.65;4.13;;;17.50;99.90;;;;;;4877757;29;20396;-80
2023/05/25 08:39:15;;;;;;;19.15;5.60;;;17.50;99.90;;;;;;4880118;29;20075;-80
2023/05/25 08:41:43;;;;;;;18.92;5.57;;;17.70;99.90;;;;;;4915215;29;20052;-81
2023/05/25 08:44:09;;;;;;;14.20;3.97;;;18.00;99.90;;;;;;4915223;29;20175;-80
2023/05/25 08:46:36;;;;;;;19.52;3.95;;;18.40;99.90;;;;;;4881252;29;20444;-77
2023/05/25 08:49:09;;;;;;;10.27;3.33;;;18.60;99.90;;;;;;4912071;29;20048;-76
2023/05/25 08:51:37;;;;;;;18.08;4.75;;;18.80;99.90;;;;;;4911635;29;20114;-81
2023/05/25 08:54:12;;;;;;;17.90;4.78;;;19.20;99.90;;;;;;4924786;29;20050;-78
2023/05/25 08:56:53;;;;;;;12.10;3.58;;;19.40;99.90;;;;;;4911856;29;20127;-77
2023/05/25 08:59:40;;;;;;;17.25;4.28;;;19.20;99.90;;;;;;4898977;29;20044;-75
2023/05/25 09:02:46;;;;;;;15.25;3.67;;;18.90;99.90;;;;;;4900247;29;20079;-76
2023/05/25 09:05:12;;;;;;;16.35;3.97;;;19.40;99.90;;;;;;4932088;29;20040;-78
2023/05/25 09:07:40;;;;;;;18.52;4.63;;;18.90;99.90;;;;;;4917322;29;20621;-75
2023/05/25 09:10:07;;;;;;;15.73;4.68;;;18.90;99.90;;;;;;4917816;29;20479;-76
2023/05/25 09:12:35;;;;;;;15.85;4.13;;;19.20;99.90;;;;;;4915135;29;20113;-77
2023/05/25 09:15:01;;;;;;;14.98;3.92;;;19.70;99.90;;;;;;4929014;29;20098;-76
2023/05/25 09:17:27;;;;;;;13.77;3.70;;;19.50;99.90;;;;;;4899387;29;20665;-78
2023/05/25 09:19:53;;;;;;;10.82;3.60;;;18.90;99.90;;;;;;4930146;29;20082;-76
2023/05/25 09:22:19;;;;;;;12.18;4.20;;;19.10;99.90;;;;;;4898791;29;20392;-74
2023/05/25 09:24:45;;;;;;;13.90;3.90;;;19.80;99.90;;;;;;4904847;29;20052;-76
2023/05/25 09:27:16;;;;;;;15.50;4.57;;;20.10;99.90;;;;;;4896011;29;20527;-78
2023/05/25 09:29:42;;;;;;;10.85;3.40;;;19.90;99.90;;;;;;4911742;29;20076;-77
2023/05/25 09:32:07;;;;;;;17.73;4.55;;;20.20;99.90;;;;;;4907471;29;20476;-78
2023/05/25 09:34:33;;;;;;;12.23;3.67;;;19.50;99.90;;;;;;4908000;29;20036;-73
2023/05/25 09:37:02;;;;;;;15.57;4.38;;;18.70;99.90;;;;;;4910909;29;20628;-80
2023/05/25 09:39:28;;;;;;;12.20;3.22;;;19.60;99.90;;;;;;4916207;29;20365;-83
2023/05/25 09:41:55;;;;;;;12.45;3.70;;;20.10;99.90;;;;;;4930045;29;20059;-81
2023/05/25 09:44:20;;;;;;;15.43;3.80;;;20.60;99.90;;;;;;4898236;29;20043;-79
2023/05/25 09:46:46;;;;;;;11.70;3.80;;;20.50;99.90;;;;;;4898691;29;20675;-78
2023/05/25 09:49:12;;;;;;;12.63;3.78;;;19.70;99.90;;;;;;4878365;28;20043;-78
2023/05/25 09:51:39;;;;;;;16.17;3.80;;;20.20;99.90;;;;;;4919952;29;20047;-81
2023/05/25 09:54:09;;;;;;;14.05;4.53;;;19.40;99.90;;;;;;4871750;29;20067;-80
2023/05/25 09:56:35;;;;;;;14.32;4.03;;;19.00;99.90;;;;;;4917851;28;20138;-82
2023/05/25 09:59:01;;;;;;;15.43;4.50;;;19.00;99.90;;;;;;4904886;29;20055;-77
2023/05/25 10:01:31;;;;;;;14.23;4.43;;;19.30;99.90;;;;;;4908163;29;20400;-82
2023/05/25 10:03:58;;;;;;;14.77;4.65;;;19.80;99.90;;;;;;4904638;29;20051;-78
2023/05/25 10:06:25;;;;;;;18.08;4.85;;;19.00;99.90;;;;;;4884522;28;20042;-76
2023/05/25 10:08:53;;;;;;;12.95;3.95;;;19.30;99.90;;;;;;4913708;28;20753;-79
2023/05/25 10:11:21;;;;;;;15.15;4.55;;;20.30;99.90;;;;;;4889349;29;20383;-82
2023/05/25 10:13:49;;;;;;;13.40;4.13;;;21.00;99.90;;;;;;4920599;28;20096;-79
2023/05/25 10:16:17;;;;;;;13.88;4.50;;;20.40;99.90;;;;;;4904986;29;20040;-80
2023/05/25 10:19:11;;;;;;;15.90;4.65;;;19.80;99.90;;;;;;4918033;28;20384;-80
2023/05/25 10:21:40;;;;;;;16.25;4.78;;;19.30;99.90;;;;;;4900701;29;20028;-79
2023/05/25 10:24:24;;;;;;;9.85;3.47;;;19.10;99.90;;;;;;4918187;28;20040;-79
2023/05/25 10:26:55;;;;;;;12.65;3.83;;;19.70;99.90;;;;;;4931115;28;20052;-80
2023/05/25 10:29:23;;;;;;;10.90;3.72;;;20.50;99.90;;;;;;4932151;28;20602;-81
2023/05/25 10:31:50;;;;;;;14.45;4.68;;;19.60;99.90;;;;;;4888935;28;20040;-79
2023/05/25 10:34:16;;;;;;;14.68;4.13;;;19.80;99.90;;;;;;4901048;29;20127;-78
2023/05/25 10:36:42;;;;;;;11.45;4.03;;;20.10;99.90;;;;;;4885964;29;20043;-76
2023/05/25 10:39:08;;;;;;;12.40;4.20;;;20.20;99.90;;;;;;4904077;29;20040;-77
2023/05/25 10:41:34;;;;;;;11.80;4.10;;;20.10;99.90;;;;;;4932651;28;20052;-78
2023/05/25 10:44:03;;;;;;;17.13;4.53;;;20.10;99.90;;;;;;4889301;29;20702;-81
2023/05/25 10:46:29;;;;;;;13.13;3.95;;;20.30;93.00;;;;;;4887243;29;20083;-77
2023/05/25 10:49:01;;;;;;;12.75;4.38;;;20.00;99.90;;;;;;4903937;29;20145;-78
2023/05/25 10:51:37;;;;;;;13.98;5.22;;;20.20;99.90;;;;;;4912044;29;20043;-79
2023/05/25 10:54:03;;;;;;;13.13;3.38;;;20.20;99.90;;;;;;4904242;28;20056;-76
2023/05/25 10:56:29;;;;;;;12.98;4.43;;;19.80;99.90;;;;;;4917224;29;20040;-79
2023/05/25 10:58:55;;;;;;;11.13;3.50;;;20.50;99.90;;;;;;4893430;28;20576;-76
2023/05/25 11:01:21;;;;;;;15.38;4.80;;;21.30;77.80;;;;;;4886048;29;20040;-78
2023/05/25 11:03:49;;;;;;;14.77;4.15;;;20.30;81.60;;;;;;4914601;29;20043;-77
2023/05/25 11:06:22;;;;;;;14.13;4.18;;;20.60;82.50;;;;;;4917391;29;20040;-78
2023/05/25 11:08:54;;;;;;;15.95;4.60;;;19.80;95.00;;;;;;4918894;29;20052;-78
2023/05/25 11:11:21;;;;;;;12.07;3.72;;;19.70;86.30;;;;;;4917241;28;20122;-78
2023/05/25 11:13:49;;;;;;;11.25;3.65;;;19.70;82.00;;;;;;4901510;29;20073;-78
2023/05/25 11:16:23;;;;;;;14.15;3.97;;;19.10;75.50;;;;;;4922179;29;20048;-78
2023/05/25 11:18:58;;;;;;;12.45;3.97;;;19.50;86.50;;;;;;4917237;28;20044;-78
2023/05/25 11:21:29;;;;;;;13.75;3.92;;;18.90;52.20;;;;;;4918126;29;20127;-78
2023/05/25 11:24:01;;;;;;;9.45;3.53;;;19.40;53.00;;;;;;4918966;28;20070;-78
2023/05/25 11:26:33;;;;;;;10.93;3.70;;;19.60;40.50;;;;;;4902197;28;20364;-77
2023/05/25 11:29:04;;;;;;;11.10;3.47;;;19.20;26.60;;;;;;4901635;28;20044;-79
2023/05/25 11:31:32;;;;;;;12.32;4.20;;;19.50;47.90;;;;;;4902284;28;20060;-78
2023/05/25 11:34:03;;;;;;;11.63;3.35;;;19.80;25.20;;;;;;4896358;28;20044;-79
2023/05/25 11:36:32;;;;;;;7.70;3.28;;;20.50;10.10;;;;;;4915762;28;20078;-78
2023/05/25 11:39:02;;;;;;;11.63;3.60;;;20.80;1.00;;;;;;4885666;29;20087;-78
2023/05/25 11:41:28;;;;;;;15.00;4.03;;;20.80;1.00;;;;;;4886675;28;20044;-80
2023/05/25 11:43:54;;;;;;;12.63;3.83;;;21.10;1.00;;;;;;4902732;28;20507;-77
2023/05/25 11:46:21;;;;;;;9.93;4.03;;;21.10;1.00;;;;;;4886919;29;20043;-77
2023/05/25 11:48:54;;;;;;;10.32;3.65;;;21.10;1.00;;;;;;4919840;29;20484;-76
2023/05/25 11:51:24;;;;;;;11.93;3.85;;;21.60;1.00;;;;;;4982627;28;20043;-76
2023/05/25 11:53:50;;;;;;;13.27;4.70;;;20.60;1.00;;;;;;4900189;28;20823;-77
2023/05/25 11:56:17;;;;;;;13.18;3.88;;;19.80;1.00;;;;;;4917578;28;20047;-77
2023/05/25 11:58:44;;;;;;;10.57;4.30;;;20.70;1.00;;;;;;4901315;29;20043;-78
2023/05/25 12:01:22;;;;;;;14.23;3.80;;;20.70;1.00;;;;;;4902571;29;20036;-79
2023/05/25 12:03:55;;;;;;;12.82;4.25;;;20.90;1.00;;;;;;4915442;29;20048;-76
2023/05/25 12:06:39;;;;;;;12.38;3.85;;;21.10;1.00;;;;;;4922382;29;20045;-77
2023/05/25 12:09:11;;;;;;;13.07;4.07;;;20.50;1.00;;;;;;4885587;29;20079;-77
2023/05/25 12:11:37;;;;;;;11.70;4.18;;;19.90;1.00;;;;;;4915555;28;20083;-77
2023/05/25 12:14:05;;;;;;;13.63;3.90;;;20.60;1.00;;;;;;4902282;28;20748;-78
2023/05/25 12:16:37;;;;;;;13.35;3.97;;;20.20;1.00;;;;;;4886748;29;20048;-76
2023/05/25 12:19:04;;;;;;;17.17;4.57;;;20.70;1.00;;;;;;4920014;29;20082;-76
2023/05/25 12:21:31;;;;;;;12.25;3.92;;;20.60;1.00;;;;;;4904005;28;20039;-78
2023/05/25 12:23:58;;;;;;;13.45;4.50;;;19.50;1.00;;;;;;4934068;28;20052;-77
2023/05/25 12:26:23;;;;;;;15.95;4.63;;;19.50;1.00;;;;;;4903427;28;20476;-77
2023/05/25 12:28:59;;;;;;;17.52;5.40;;;19.90;1.00;;;;;;4905232;28;20053;-76
2023/05/25 12:31:27;;;;;;;13.73;4.00;;;20.20;1.00;;;;;;4906024;28;20082;-78
2023/05/25 12:34:02;;;;;;;12.40;4.18;;;19.80;1.00;;;;;;4887934;29;20047;-77
2023/05/25 12:36:53;;;;;;;15.20;4.38;;;19.60;1.00;;;;;;4902839;29;20043;-76
2023/05/25 12:39:28;;;;;;;12.23;3.95;;;20.10;1.00;;;;;;4901671;29;20380;-77
2023/05/25 12:41:54;;;;;;;16.10;4.05;;;20.50;1.00;;;;;;4903369;29;20048;-78